sensor_id;sensor_type;location;lat;lon;timestamp;pressure;altitude;pressure_sealevel;temperature;humidity
71344;BME280;59146;43.850;25.948;2023-02-03T00:00:37;101286.50;;;1.54;77.76
71344;BME280;59146;43.850;25.948;2023-02-03T00:03:03;101300.22;;;1.54;77.86
71344;BME280;59146;43.850;25.948;2023-02-03T00:05:29;101305.19;;;1.71;77.56
71344;BME280;59146;43.850;25.948;2023-02-03T00:07:55;101323.19;;;1.73;77.60
71344;BME280;59146;43.850;25.948;2023-02-03T00:10:20;101255.00;;;1.31;77.71
71344;BME280;59146;43.850;25.948;2023-02-03T00:12:50;101325.03;;;1.63;78.02
71344;BME280;59146;43.850;25.948;2023-02-03T00:15:17;101241.44;;;1.17;77.98
71344;BME280;59146;43.850;25.948;2023-02-03T00:17:43;101260.97;;;1.36;77.96
71344;BME280;59146;43.850;25.948;2023-02-03T00:20:09;101238.81;;;1.23;77.88
71344;BME280;59146;43.850;25.948;2023-02-03T00:22:35;101304.44;;;1.60;78.00
71344;BME280;59146;43.850;25.948;2023-02-03T00:25:00;101254.97;;;1.35;77.82
71344;BME280;59146;43.850;25.948;2023-02-03T00:27:25;101208.97;;;1.07;78.05
71344;BME280;59146;43.850;25.948;2023-02-03T00:29:51;101319.03;;;1.63;78.20
71344;BME280;59146;43.850;25.948;2023-02-03T00:32:16;101272.22;;;1.26;78.34
71344;BME280;59146;43.850;25.948;2023-02-03T00:34:42;101322.47;;;1.60;78.25
71344;BME280;59146;43.850;25.948;2023-02-03T00:37:07;101319.97;;;1.54;77.84
71344;BME280;59146;43.850;25.948;2023-02-03T00:39:35;101272.94;;;1.40;77.60
71344;BME280;59146;43.850;25.948;2023-02-03T00:42:03;101281.63;;;1.30;77.78
71344;BME280;59146;43.850;25.948;2023-02-03T00:44:28;101285.84;;;1.35;77.64
71344;BME280;59146;43.850;25.948;2023-02-03T00:46:54;101330.97;;;1.68;77.38
71344;BME280;59146;43.850;25.948;2023-02-03T00:49:19;101314.06;;;1.46;77.58
71344;BME280;59146;43.850;25.948;2023-02-03T00:51:44;101349.00;;;1.68;77.78
71344;BME280;59146;43.850;25.948;2023-02-03T00:54:10;101285.84;;;1.35;77.74
71344;BME280;59146;43.850;25.948;2023-02-03T00:56:35;101334.44;;;1.64;77.78
71344;BME280;59146;43.850;25.948;2023-02-03T00:59:01;101354.06;;;1.74;77.89
71344;BME280;59146;43.850;25.948;2023-02-03T01:01:26;101359.22;;;1.76;77.84
71344;BME280;59146;43.850;25.948;2023-02-03T01:03:54;101333.53;;;1.70;77.48
71344;BME280;59146;43.850;25.948;2023-02-03T01:06:20;101307.13;;;1.51;77.56
71344;BME280;59146;43.850;25.948;2023-02-03T01:08:47;101346.53;;;1.59;77.95
71344;BME280;59146;43.850;25.948;2023-02-03T01:11:15;101336.28;;;1.53;77.93
71344;BME280;59146;43.850;25.948;2023-02-03T01:13:41;101358.38;;;1.75;77.44
71344;BME280;59146;43.850;25.948;2023-02-03T01:16:08;101343.94;;;1.60;77.91
71344;BME280;59146;43.850;25.948;2023-02-03T01:18:34;101304.72;;;1.34;77.96
71344;BME280;59146;43.850;25.948;2023-02-03T01:21:07;101314.97;;;1.39;78.25
71344;BME280;59146;43.850;25.948;2023-02-03T01:23:34;101279.06;;;1.27;77.85
71344;BME280;59146;43.850;25.948;2023-02-03T01:26:08;101358.38;;;1.72;77.83
71344;BME280;59146;43.850;25.948;2023-02-03T01:28:34;101329.31;;;1.63;77.90
71344;BME280;59146;43.850;25.948;2023-02-03T01:33:34;101332.69;;;1.69;77.64
71344;BME280;59146;43.850;25.948;2023-02-03T01:36:00;101298.56;;;1.49;77.41
71344;BME280;59146;43.850;25.948;2023-02-03T01:38:25;101290.81;;;1.52;77.17
71344;BME280;59146;43.850;25.948;2023-02-03T01:40:50;101284.78;;;1.53;77.09
71344;BME280;59146;43.850;25.948;2023-02-03T01:43:33;101349.56;;;1.94;77.04
71344;BME280;59146;43.850;25.948;2023-02-03T01:46:02;101291.47;;;1.69;76.81
71344;BME280;59146;43.850;25.948;2023-02-03T01:48:31;101346.09;;;1.95;76.91
71344;BME280;59146;43.850;25.948;2023-02-03T01:51:01;101352.84;;;2.05;76.95
71344;BME280;59146;43.850;25.948;2023-02-03T01:53:26;101346.06;;;1.98;76.74
71344;BME280;59146;43.850;25.948;2023-02-03T01:55:52;101352.91;;;1.99;76.60
71344;BME280;59146;43.850;25.948;2023-02-03T01:58:24;101363.97;;;2.10;76.58
71344;BME280;59146;43.850;25.948;2023-02-03T02:00:53;101341.06;;;1.85;77.11
71344;BME280;59146;43.850;25.948;2023-02-03T02:03:22;101311.13;;;1.76;76.66
71344;BME280;59146;43.850;25.948;2023-02-03T02:06:06;101372.69;;;2.00;76.76
71344;BME280;59146;43.850;25.948;2023-02-03T02:08:32;101219.13;;;1.16;76.41
71344;BME280;59146;43.850;25.948;2023-02-03T02:10:58;101353.88;;;1.91;76.61
71344;BME280;59146;43.850;25.948;2023-02-03T02:13:25;101314.53;;;1.78;76.41
71344;BME280;59146;43.850;25.948;2023-02-03T02:15:59;101328.25;;;1.82;76.74
71344;BME280;59146;43.850;25.948;2023-02-03T02:37:21;101268.22;;;1.75;75.97
71344;BME280;59146;43.850;25.948;2023-02-03T02:39:57;101358.59;;;2.27;75.97
71344;BME280;59146;43.850;25.948;2023-02-03T02:45:18;101325.41;;;2.03;75.55
71344;BME280;59146;43.850;25.948;2023-02-03T02:47:47;101385.06;;;2.39;75.58
71344;BME280;59146;43.850;25.948;2023-02-03T02:50:22;101320.25;;;2.01;75.62
71344;BME280;59146;43.850;25.948;2023-02-03T02:52:49;101302.44;;;1.86;75.22
71344;BME280;59146;43.850;25.948;2023-02-03T02:55:36;101393.78;;;2.29;75.95
71344;BME280;59146;43.850;25.948;2023-02-03T02:58:07;101332.44;;;1.90;76.61
71344;BME280;59146;43.850;25.948;2023-02-03T03:00:34;101365.56;;;2.19;75.90
71344;BME280;59146;43.850;25.948;2023-02-03T03:03:30;101397.00;;;2.47;75.72
71344;BME280;59146;43.850;25.948;2023-02-03T03:06:06;101356.31;;;2.04;76.12
71344;BME280;59146;43.850;25.948;2023-02-03T03:11:00;101368.19;;;2.14;76.72
71344;BME280;59146;43.850;25.948;2023-02-03T03:13:31;101300.75;;;1.81;76.75
71344;BME280;59146;43.850;25.948;2023-02-03T03:15:58;101381.88;;;2.21;76.82
71344;BME280;59146;43.850;25.948;2023-02-03T03:18:28;101315.44;;;1.74;76.96
71344;BME280;59146;43.850;25.948;2023-02-03T03:20:56;101319.63;;;1.83;76.74
71344;BME280;59146;43.850;25.948;2023-02-03T03:23:27;101392.16;;;2.22;76.87
71344;BME280;59146;43.850;25.948;2023-02-03T03:26:00;101344.50;;;1.85;77.27
71344;BME280;59146;43.850;25.948;2023-02-03T03:28:34;101368.19;;;2.14;76.80
71344;BME280;59146;43.850;25.948;2023-02-03T03:31:02;101378.50;;;2.14;77.08
71344;BME280;59146;43.850;25.948;2023-02-03T03:33:28;101241.28;;;1.32;76.90
71344;BME280;59146;43.850;25.948;2023-02-03T03:36:00;101392.28;;;2.13;77.07
71344;BME280;59146;43.850;25.948;2023-02-03T03:38:38;101425.47;;;2.39;76.55
71344;BME280;59146;43.850;25.948;2023-02-03T03:41:08;101423.09;;;2.22;76.46
71344;BME280;59146;43.850;25.948;2023-02-03T03:43:40;101405.94;;;2.18;76.79
71344;BME280;59146;43.850;25.948;2023-02-03T03:46:14;101431.47;;;2.39;76.72
71344;BME280;59146;43.850;25.948;2023-02-03T03:48:50;101429.75;;;2.40;76.61
71344;BME280;59146;43.850;25.948;2023-02-03T03:54:02;101397.50;;;2.07;77.18
71344;BME280;59146;43.850;25.948;2023-02-03T03:56:38;101415.34;;;2.22;76.33
71344;BME280;59146;43.850;25.948;2023-02-03T03:59:06;101424.81;;;2.20;77.40
71344;BME280;59146;43.850;25.948;2023-02-03T04:01:33;101441.84;;;2.35;76.87
71344;BME280;59146;43.850;25.948;2023-02-03T04:04:02;101364.41;;;1.73;77.55
71344;BME280;59146;43.850;25.948;2023-02-03T04:06:30;101377.16;;;1.83;77.27
71344;BME280;59146;43.850;25.948;2023-02-03T04:08:55;101383.88;;;1.98;77.20
71344;BME280;59146;43.850;25.948;2023-02-03T04:11:21;101375.44;;;1.85;77.10
71344;BME280;59146;43.850;25.948;2023-02-03T04:14:04;101389.13;;;1.90;77.78
71344;BME280;59146;43.850;25.948;2023-02-03T04:16:30;101448.75;;;2.31;77.68
71344;BME280;59146;43.850;25.948;2023-02-03T04:18:56;101377.22;;;1.79;77.68
71344;BME280;59146;43.850;25.948;2023-02-03T04:21:21;101403.56;;;2.02;77.99
71344;BME280;59146;43.850;25.948;2023-02-03T04:23:46;101435.13;;;2.23;77.95
71344;BME280;59146;43.850;25.948;2023-02-03T04:26:12;101417.94;;;2.22;77.57
71344;BME280;59146;43.850;25.948;2023-02-03T04:28:37;101435.03;;;2.29;77.28
71344;BME280;59146;43.850;25.948;2023-02-03T04:31:03;101416.34;;;2.12;77.28
71344;BME280;59146;43.850;25.948;2023-02-03T04:33:28;101420.50;;;2.24;77.04
71344;BME280;59146;43.850;25.948;2023-02-03T04:35:53;101465.03;;;2.38;76.87
71344;BME280;59146;43.850;25.948;2023-02-03T04:38:19;101398.41;;;2.02;77.10
71344;BME280;59146;43.850;25.948;2023-02-03T04:40:45;101396.88;;;1.87;77.49
71344;BME280;59146;43.850;25.948;2023-02-03T04:43:10;101474.53;;;2.34;77.53
71344;BME280;59146;43.850;25.948;2023-02-03T04:45:36;101423.25;;;2.09;77.20
71344;BME280;59146;43.850;25.948;2023-02-03T04:48:02;101464.31;;;2.25;77.53
71344;BME280;59146;43.850;25.948;2023-02-03T04:50:29;101459.88;;;2.35;77.02
71344;BME280;59146;43.850;25.948;2023-02-03T04:52:55;101418.09;;;2.10;77.20
71344;BME280;59146;43.850;25.948;2023-02-03T04:55:24;101481.28;;;2.41;77.56
71344;BME280;59146;43.850;25.948;2023-02-03T04:57:54;101475.25;;;2.44;76.77
71344;BME280;59146;43.850;25.948;2023-02-03T05:00:20;101436.78;;;2.27;76.96
71344;BME280;59146;43.850;25.948;2023-02-03T05:02:45;101447.94;;;2.26;76.38
71344;BME280;59146;43.850;25.948;2023-02-03T05:05:10;101494.13;;;2.49;77.09
71344;BME280;59146;43.850;25.948;2023-02-03T05:07:36;101496.66;;;2.51;77.79
71344;BME280;59146;43.850;25.948;2023-02-03T05:10:01;101500.81;;;2.64;76.80
71344;BME280;59146;43.850;25.948;2023-02-03T05:12:26;101477.78;;;2.49;76.47
71344;BME280;59146;43.850;25.948;2023-02-03T05:14:52;101466.66;;;2.45;76.42
71344;BME280;59146;43.850;25.948;2023-02-03T05:17:17;101472.00;;;2.28;77.13
71344;BME280;59146;43.850;25.948;2023-02-03T05:19:43;101462.47;;;2.36;77.04
71344;BME280;59146;43.850;25.948;2023-02-03T05:22:08;101461.47;;;2.47;76.44
71344;BME280;59146;43.850;25.948;2023-02-03T05:24:33;101476.13;;;2.41;77.45
71344;BME280;59146;43.850;25.948;2023-02-03T05:26:59;101509.63;;;2.45;77.34
71344;BME280;59146;43.850;25.948;2023-02-03T05:29:24;101494.16;;;2.43;77.40
71344;BME280;59146;43.850;25.948;2023-02-03T05:31:50;101460.16;;;2.12;77.71
71344;BME280;59146;43.850;25.948;2023-02-03T05:34:15;101505.34;;;2.43;77.67
71344;BME280;59146;43.850;25.948;2023-02-03T05:36:41;101443.13;;;2.01;78.56
71344;BME280;59146;43.850;25.948;2023-02-03T05:39:06;101483.41;;;2.09;78.50
71344;BME280;59146;43.850;25.948;2023-02-03T05:41:31;101499.47;;;2.31;78.18
71344;BME280;59146;43.850;25.948;2023-02-03T05:44:15;101506.41;;;2.26;77.97
71344;BME280;59146;43.850;25.948;2023-02-03T05:46:41;101537.09;;;2.49;77.93
71344;BME280;59146;43.850;25.948;2023-02-03T05:49:06;101416.78;;;1.73;77.74
71344;BME280;59146;43.850;25.948;2023-02-03T05:51:32;101511.41;;;2.39;77.87
71344;BME280;59146;43.850;25.948;2023-02-03T05:53:57;101525.19;;;2.37;78.13
71344;BME280;59146;43.850;25.948;2023-02-03T05:56:22;101470.38;;;2.18;77.64
71344;BME280;59146;43.850;25.948;2023-02-03T05:58:48;101487.44;;;2.31;77.77
71344;BME280;59146;43.850;25.948;2023-02-03T06:01:17;101548.19;;;2.57;78.13
71344;BME280;59146;43.850;25.948;2023-02-03T06:03:44;101526.91;;;2.38;78.33
71344;BME280;59146;43.850;25.948;2023-02-03T06:06:09;101471.28;;;2.14;77.59
71344;BME280;59146;43.850;25.948;2023-02-03T06:08:34;101465.28;;;2.14;77.51
71344;BME280;59146;43.850;25.948;2023-02-03T06:11:00;101472.41;;;1.92;79.07
71344;BME280;59146;43.850;25.948;2023-02-03T06:13:26;101507.16;;;2.35;78.43
71344;BME280;59146;43.850;25.948;2023-02-03T06:15:52;101498.50;;;2.42;77.98
71344;BME280;59146;43.850;25.948;2023-02-03T06:18:17;101546.25;;;2.74;77.77
71344;BME280;59146;43.850;25.948;2023-02-03T06:20:43;101583.97;;;2.84;77.57
71344;BME280;59146;43.850;25.948;2023-02-03T06:23:08;101577.78;;;2.95;77.25
71344;BME280;59146;43.850;25.948;2023-02-03T06:25:33;101566.84;;;2.77;77.93
71344;BME280;59146;43.850;25.948;2023-02-03T06:27:59;101578.81;;;2.84;78.03
71344;BME280;59146;43.850;25.948;2023-02-03T06:30:24;101487.38;;;2.36;77.73
71344;BME280;59146;43.850;25.948;2023-02-03T06:32:50;101557.59;;;2.61;77.72
71344;BME280;59146;43.850;25.948;2023-02-03T06:35:16;101531.28;;;2.28;78.35
71344;BME280;59146;43.850;25.948;2023-02-03T06:37:41;101573.81;;;2.69;77.97
71344;BME280;59146;43.850;25.948;2023-02-03T06:40:08;101576.56;;;2.57;78.13
71344;BME280;59146;43.850;25.948;2023-02-03T06:42:33;101591.06;;;2.67;78.40
71344;BME280;59146;43.850;25.948;2023-02-03T06:44:59;101550.91;;;2.41;78.47
71344;BME280;59146;43.850;25.948;2023-02-03T06:47:24;101582.47;;;2.65;78.41
71344;BME280;59146;43.850;25.948;2023-02-03T06:49:50;101610.84;;;2.65;78.60
71344;BME280;59146;43.850;25.948;2023-02-03T06:52:16;101599.75;;;2.58;78.35
71344;BME280;59146;43.850;25.948;2023-02-03T06:54:42;101476.44;;;2.14;78.26
71344;BME280;59146;43.850;25.948;2023-02-03T06:57:07;101570.25;;;2.82;77.62
71344;BME280;59146;43.850;25.948;2023-02-03T06:59:33;101534.53;;;2.49;77.66
71344;BME280;59146;43.850;25.948;2023-02-03T07:01:58;101593.41;;;2.86;77.33
71344;BME280;59146;43.850;25.948;2023-02-03T07:04:23;101587.28;;;2.93;76.93
71344;BME280;59146;43.850;25.948;2023-02-03T07:06:49;101614.53;;;3.17;76.76
71344;BME280;59146;43.850;25.948;2023-02-03T07:09:14;101593.97;;;3.08;76.86
71344;BME280;59146;43.850;25.948;2023-02-03T07:11:40;101603.78;;;2.82;77.00
71344;BME280;59146;43.850;25.948;2023-02-03T07:14:05;101553.00;;;2.87;76.80
71344;BME280;59146;43.850;25.948;2023-02-03T07:16:31;101632.19;;;3.49;76.04
71344;BME280;59146;43.850;25.948;2023-02-03T07:18:58;101610.03;;;3.31;75.99
71344;BME280;59146;43.850;25.948;2023-02-03T07:21:24;101564.00;;;2.99;76.49
71344;BME280;59146;43.850;25.948;2023-02-03T07:23:49;101620.44;;;3.27;76.18
71344;BME280;59146;43.850;25.948;2023-02-03T07:26:15;101438.84;;;1.98;77.03
71344;BME280;59146;43.850;25.948;2023-02-03T07:28:41;101612.09;;;3.06;77.78
71344;BME280;59146;43.850;25.948;2023-02-03T07:31:07;101650.31;;;3.44;76.20
71344;BME280;59146;43.850;25.948;2023-02-03T07:33:37;101658.00;;;3.50;75.69
71344;BME280;59146;43.850;25.948;2023-02-03T07:36:03;101642.84;;;3.26;76.65
71344;BME280;59146;43.850;25.948;2023-02-03T07:38:29;101647.03;;;3.33;76.59
71344;BME280;59146;43.850;25.948;2023-02-03T07:40:55;101652.19;;;3.33;77.14
71344;BME280;59146;43.850;25.948;2023-02-03T07:43:21;101594.69;;;3.22;75.76
71344;BME280;59146;43.850;25.948;2023-02-03T07:45:46;101632.97;;;3.55;75.45
71344;BME280;59146;43.850;25.948;2023-02-03T07:48:12;101606.41;;;3.44;75.06
71344;BME280;59146;43.850;25.948;2023-02-03T07:50:38;101607.31;;;3.43;74.26
71344;BME280;59146;43.850;25.948;2023-02-03T07:53:04;101658.66;;;3.66;74.94
71344;BME280;59146;43.850;25.948;2023-02-03T07:55:30;101602.78;;;3.57;73.92
71344;BME280;59146;43.850;25.948;2023-02-03T07:57:56;101663.38;;;3.94;73.70
71344;BME280;59146;43.850;25.948;2023-02-03T08:00:22;101667.56;;;4.03;74.26
71344;BME280;59146;43.850;25.948;2023-02-03T08:02:48;101650.91;;;4.19;72.89
71344;BME280;59146;43.850;25.948;2023-02-03T08:05:14;101656.56;;;3.90;74.11
71344;BME280;59146;43.850;25.948;2023-02-03T08:07:41;101608.03;;;3.53;74.20
71344;BME280;59146;43.850;25.948;2023-02-03T08:10:09;101685.75;;;3.97;74.17
71344;BME280;59146;43.850;25.948;2023-02-03T08:12:35;101651.75;;;3.66;73.69
71344;BME280;59146;43.850;25.948;2023-02-03T08:15:00;101709.94;;;3.93;74.35
71344;BME280;59146;43.850;25.948;2023-02-03T08:17:26;101670.59;;;3.73;74.19
71344;BME280;59146;43.850;25.948;2023-02-03T08:19:51;101663.72;;;3.72;73.45
71344;BME280;59146;43.850;25.948;2023-02-03T08:22:17;101656.66;;;3.84;73.46
71344;BME280;59146;43.850;25.948;2023-02-03T08:24:44;101675.16;;;4.14;72.20
71344;BME280;59146;43.850;25.948;2023-02-03T08:40:55;101702.66;;;4.71;69.33
71344;BME280;59146;43.850;25.948;2023-02-03T08:43:20;101677.59;;;4.73;69.17
71344;BME280;59146;43.850;25.948;2023-02-03T08:45:45;101600.41;;;3.98;69.69
71344;BME280;59146;43.850;25.948;2023-02-03T08:48:11;101621.81;;;4.07;69.91
71344;BME280;59146;43.850;25.948;2023-02-03T08:50:36;101594.66;;;3.83;70.53
71344;BME280;59146;43.850;25.948;2023-02-03T08:53:02;101678.34;;;4.31;69.72
71344;BME280;59146;43.850;25.948;2023-02-03T08:55:27;101627.31;;;3.87;69.91
71344;BME280;59146;43.850;25.948;2023-02-03T08:57:53;101663.13;;;4.11;70.37
71344;BME280;59146;43.850;25.948;2023-02-03T09:00:18;101625.50;;;3.93;70.02
71344;BME280;59146;43.850;25.948;2023-02-03T09:02:44;101548.53;;;3.57;69.77
71344;BME280;59146;43.850;25.948;2023-02-03T09:05:09;101661.25;;;4.19;70.03
71344;BME280;59146;43.850;25.948;2023-02-03T09:07:35;101619.38;;;3.99;69.24
71344;BME280;59146;43.850;25.948;2023-02-03T09:10:00;101724.34;;;4.64;69.09
71344;BME280;59146;43.850;25.948;2023-02-03T09:12:26;101649.13;;;4.24;69.17
71344;BME280;59146;43.850;25.948;2023-02-03T09:14:51;101672.19;;;4.36;69.22
71344;BME280;59146;43.850;25.948;2023-02-03T09:17:17;101573.69;;;3.99;69.20
71344;BME280;59146;43.850;25.948;2023-02-03T09:19:42;101686.31;;;4.69;69.09
71344;BME280;59146;43.850;25.948;2023-02-03T09:22:07;101667.06;;;4.83;68.54
71344;BME280;59146;43.850;25.948;2023-02-03T09:24:33;101650.31;;;4.55;67.71
71344;BME280;59146;43.850;25.948;2023-02-03T09:26:58;101731.63;;;4.91;68.91
71344;BME280;59146;43.850;25.948;2023-02-03T09:29:25;101738.59;;;4.86;69.07
71344;BME280;59146;43.850;25.948;2023-02-03T09:31:51;101741.13;;;4.92;69.18
71344;BME280;59146;43.850;25.948;2023-02-03T09:34:18;101744.56;;;4.91;69.05
71344;BME280;59146;43.850;25.948;2023-02-03T09:36:44;101734.19;;;4.94;69.38
71344;BME280;59146;43.850;25.948;2023-02-03T09:39:09;101703.94;;;4.95;68.78
71344;BME280;59146;43.850;25.948;2023-02-03T09:45:09;101722.75;;;5.04;69.32
71344;BME280;59146;43.850;25.948;2023-02-03T09:47:41;101708.72;;;5.16;69.11
71344;BME280;59146;43.850;25.948;2023-02-03T09:50:13;101646.69;;;4.64;70.50
71344;BME280;59146;43.850;25.948;2023-02-03T09:52:42;101674.63;;;4.94;69.95
71344;BME280;59146;43.850;25.948;2023-02-03T09:58:14;101722.31;;;5.27;67.33
71344;BME280;59146;43.850;25.948;2023-02-03T10:00:56;101724.63;;;5.40;67.51
71344;BME280;59146;43.850;25.948;2023-02-03T10:03:30;101682.38;;;5.37;66.64
71344;BME280;59146;43.850;25.948;2023-02-03T10:16:41;101720.47;;;5.75;66.33
71344;BME280;59146;43.850;25.948;2023-02-03T10:19:17;101682.94;;;5.51;65.58
71344;BME280;59146;43.850;25.948;2023-02-03T10:21:54;101693.66;;;5.74;65.43
71344;BME280;59146;43.850;25.948;2023-02-03T10:25:24;101680.03;;;5.68;65.18
71344;BME280;59146;43.850;25.948;2023-02-03T10:27:24;101685.78;;;5.80;65.64
71344;BME280;59146;43.850;25.948;2023-02-03T10:32:26;101702.31;;;5.75;66.66
71344;BME280;59146;43.850;25.948;2023-02-03T10:34:52;101639.97;;;5.42;66.50
71344;BME280;59146;43.850;25.948;2023-02-03T10:37:30;101688.72;;;5.65;67.05
71344;BME280;59146;43.850;25.948;2023-02-03T10:39:59;101693.81;;;5.70;67.16
71344;BME280;59146;43.850;25.948;2023-02-03T10:42:28;101585.94;;;5.24;66.25
71344;BME280;59146;43.850;25.948;2023-02-03T10:45:14;101679.59;;;6.24;65.86
71344;BME280;59146;43.850;25.948;2023-02-03T10:47:55;101686.22;;;6.69;65.70
71344;BME280;59146;43.850;25.948;2023-02-03T10:50:24;101645.50;;;6.71;64.41
71344;BME280;59146;43.850;25.948;2023-02-03T10:55:43;101659.31;;;7.33;62.47
71344;BME280;59146;43.850;25.948;2023-02-03T10:58:15;101592.75;;;7.29;60.55
71344;BME280;59146;43.850;25.948;2023-02-03T11:00:42;101629.03;;;7.61;59.83
71344;BME280;59146;43.850;25.948;2023-02-03T11:03:22;101647.75;;;8.00;58.62
71344;BME280;59146;43.850;25.948;2023-02-03T11:06:10;101612.88;;;8.06;56.75
71344;BME280;59146;43.850;25.948;2023-02-03T11:08:39;101624.66;;;8.43;56.25
71344;BME280;59146;43.850;25.948;2023-02-03T11:11:07;101632.53;;;8.40;55.55
71344;BME280;59146;43.850;25.948;2023-02-03T11:13:33;101633.31;;;8.68;52.09
71344;BME280;59146;43.850;25.948;2023-02-03T11:16:12;101651.47;;;8.95;49.26
71344;BME280;59146;43.850;25.948;2023-02-03T11:21:24;101657.97;;;8.58;50.18
71344;BME280;59146;43.850;25.948;2023-02-03T11:23:55;101643.88;;;8.64;50.22
71344;BME280;59146;43.850;25.948;2023-02-03T11:26:25;101561.44;;;8.40;50.43
71344;BME280;59146;43.850;25.948;2023-02-03T11:28:53;101573.19;;;7.99;49.82
71344;BME280;59146;43.850;25.948;2023-02-03T11:31:23;101634.63;;;8.03;50.96
71344;BME280;59146;43.850;25.948;2023-02-03T11:34:04;101557.81;;;7.65;50.44
71344;BME280;59146;43.850;25.948;2023-02-03T11:36:33;101564.66;;;7.95;49.38
71344;BME280;59146;43.850;25.948;2023-02-03T11:39:18;101617.84;;;7.85;49.39
71344;BME280;59146;43.850;25.948;2023-02-03T11:41:45;101530.03;;;7.40;50.25
71344;BME280;59146;43.850;25.948;2023-02-03T11:46:49;101552.88;;;8.10;50.28
71344;BME280;59146;43.850;25.948;2023-02-03T11:49:41;101604.72;;;8.67;50.08
71344;BME280;59146;43.850;25.948;2023-02-03T11:52:30;101603.69;;;8.46;50.53
71344;BME280;59146;43.850;25.948;2023-02-03T12:00:29;101595.16;;;8.91;48.16
71344;BME280;59146;43.850;25.948;2023-02-03T12:03:21;101566.63;;;8.64;49.67
71344;BME280;59146;43.850;25.948;2023-02-03T12:14:26;101588.94;;;8.21;50.90
71344;BME280;59146;43.850;25.948;2023-02-03T12:22:32;101586.59;;;8.64;48.52
71344;BME280;59146;43.850;25.948;2023-02-03T12:30:59;101559.56;;;8.43;47.77
71344;BME280;59146;43.850;25.948;2023-02-03T12:33:30;101565.81;;;8.12;48.57
71344;BME280;59146;43.850;25.948;2023-02-03T12:36:10;101521.69;;;7.58;51.22
71344;BME280;59146;43.850;25.948;2023-02-03T12:38:51;101509.69;;;7.26;51.06
71344;BME280;59146;43.850;25.948;2023-02-03T12:41:26;101563.34;;;7.55;51.32
71344;BME280;59146;43.850;25.948;2023-02-03T12:43:57;101560.34;;;7.68;50.83
71344;BME280;59146;43.850;25.948;2023-02-03T12:51:34;101565.72;;;7.62;52.17
71344;BME280;59146;43.850;25.948;2023-02-03T12:54:22;101571.97;;;7.57;52.30
71344;BME280;59146;43.850;25.948;2023-02-03T12:56:52;101501.47;;;7.12;52.64
71344;BME280;59146;43.850;25.948;2023-02-03T12:59:22;101475.97;;;6.95;52.88
71344;BME280;59146;43.850;25.948;2023-02-03T13:01:55;101502.41;;;7.09;53.28
71344;BME280;59146;43.850;25.948;2023-02-03T13:04:42;101572.06;;;7.54;52.21
71344;BME280;59146;43.850;25.948;2023-02-03T13:07:32;101456.19;;;6.91;51.36
71344;BME280;59146;43.850;25.948;2023-02-03T13:10:45;101553.06;;;7.52;51.46
71344;BME280;59146;43.850;25.948;2023-02-03T13:12:49;101449.91;;;6.98;51.80
71344;BME280;59146;43.850;25.948;2023-02-03T13:15:42;101559.28;;;7.74;52.29
71344;BME280;59146;43.850;25.948;2023-02-03T13:18:30;101554.88;;;7.76;52.67
71344;BME280;59146;43.850;25.948;2023-02-03T13:20:57;101520.91;;;7.80;52.86
71344;BME280;59146;43.850;25.948;2023-02-03T13:23:24;101525.78;;;7.91;53.66
71344;BME280;59146;43.850;25.948;2023-02-03T13:32:12;101541.41;;;7.63;54.96
71344;BME280;59146;43.850;25.948;2023-02-03T13:40:39;101458.66;;;7.23;55.23
71344;BME280;59146;43.850;25.948;2023-02-03T13:43:16;101517.84;;;7.42;55.75
71344;BME280;59146;43.850;25.948;2023-02-03T13:45:51;101424.41;;;7.11;56.04
71344;BME280;59146;43.850;25.948;2023-02-03T13:48:37;101527.41;;;7.67;56.34
71344;BME280;59146;43.850;25.948;2023-02-03T13:51:11;101479.63;;;7.17;57.38
71344;BME280;59146;43.850;25.948;2023-02-03T13:53:50;101436.06;;;6.98;57.62
71344;BME280;59146;43.850;25.948;2023-02-03T13:56:18;101514.34;;;7.69;57.10
71344;BME280;59146;43.850;25.948;2023-02-03T13:59:45;101469.75;;;7.29;54.15
71344;BME280;59146;43.850;25.948;2023-02-03T14:01:43;101434.41;;;6.97;53.22
71344;BME280;59146;43.850;25.948;2023-02-03T14:07:38;101416.50;;;6.88;49.09
71344;BME280;59146;43.850;25.948;2023-02-03T14:12:55;101504.41;;;7.01;55.85
71344;BME280;59146;43.850;25.948;2023-02-03T14:18:43;101521.84;;;6.96;58.81
71344;BME280;59146;43.850;25.948;2023-02-03T14:20:51;101512.34;;;6.95;58.74
71344;BME280;59146;43.850;25.948;2023-02-03T14:23:33;101464.81;;;6.64;59.86
71344;BME280;59146;43.850;25.948;2023-02-03T14:26:03;101492.28;;;7.00;59.44
71344;BME280;59146;43.850;25.948;2023-02-03T14:28:40;101511.94;;;7.37;59.23
71344;BME280;59146;43.850;25.948;2023-02-03T14:31:18;101483.56;;;7.03;60.38
71344;BME280;59146;43.850;25.948;2023-02-03T14:48:28;101513.38;;;6.90;61.25
71344;BME280;59146;43.850;25.948;2023-02-03T15:02:32;101466.53;;;5.35;64.67
71344;BME280;59146;43.850;25.948;2023-02-03T15:13:02;101517.28;;;5.05;64.53
71344;BME280;59146;43.850;25.948;2023-02-03T15:15:30;101495.34;;;4.83;64.21
71344;BME280;59146;43.850;25.948;2023-02-03T15:17:58;101529.19;;;5.14;64.21
71344;BME280;59146;43.850;25.948;2023-02-03T15:22:54;101542.63;;;4.91;64.20
71344;BME280;59146;43.850;25.948;2023-02-03T15:25:21;101536.97;;;4.72;65.94
71344;BME280;59146;43.850;25.948;2023-02-03T15:27:49;101541.41;;;4.66;65.37
71344;BME280;59146;43.850;25.948;2023-02-03T15:30:25;101478.44;;;4.24;65.67
71344;BME280;59146;43.850;25.948;2023-02-03T15:33:16;101535.69;;;4.50;65.84
71344;BME280;59146;43.850;25.948;2023-02-03T15:35:48;101457.84;;;4.20;65.19
71344;BME280;59146;43.850;25.948;2023-02-03T15:38:25;101514.28;;;4.44;65.03
71344;BME280;59146;43.850;25.948;2023-02-03T15:40:55;101539.44;;;4.34;65.52